Pattison, Mississippi
Current Conditions -  °F | °C
As of 8:35 PM on Tuesday 21 Oct 2014 (Local Time) from KVKS Reporting Station
Broken Clouds Broken Clouds  
Wind Chill: 61°   Ceiling: 4200
Heat Index: 61°   Visibility: 7mi
Dew Point: 59°   Wind: 0mph
Humidity: 94%   Direction: NA
Pressure: 30.04"   Gusts: NA
Location:  31.89°N, 90.89°W
Report Text: KVKS 220135Z AUTO 00000KT 7SM BKN042 16/15 A3004 RMK A01
Loading
Personal Weather Stations






























Interactive Weather Map New forecast layout! Learn more

10-Day Weather Forecast

Advertisements
Track Severe Weather on mobile